createdAt,value
2019-05-23T00:01:26.490Z,9.75
2019-05-23T00:04:23.289Z,4.55
2019-05-23T00:07:16.906Z,8.05
2019-05-23T00:10:09.583Z,9.18
2019-05-23T00:12:55.409Z,11.50
2019-05-23T00:15:42.477Z,10.35
2019-05-23T00:18:20.853Z,10.80
2019-05-23T00:20:52.001Z,7.25
2019-05-23T00:23:25.693Z,13.20
2019-05-23T00:25:59.621Z,10.65
2019-05-23T00:28:35.503Z,11.63
2019-05-23T00:31:21.447Z,7.33
2019-05-23T00:33:55.030Z,11.85
2019-05-23T00:36:29.176Z,10.78
2019-05-23T00:39:03.617Z,9.45
2019-05-23T00:41:37.343Z,11.25
2019-05-23T00:44:10.875Z,10.55
2019-05-23T00:46:43.889Z,11.95
2019-05-23T00:49:18.693Z,9.38
2019-05-23T00:51:52.897Z,11.73
2019-05-23T00:54:26.188Z,13.68
2019-05-23T00:56:59.449Z,10.08
2019-05-23T00:59:33.134Z,11.40
2019-05-23T01:02:07.677Z,12.00
2019-05-23T01:04:42.811Z,14.20
2019-05-23T01:07:17.281Z,13.28
2019-05-23T01:09:52.107Z,15.15
2019-05-23T01:12:25.101Z,11.38
2019-05-23T01:14:58.306Z,12.37
2019-05-23T01:17:33.665Z,12.88
2019-05-23T01:20:10.647Z,12.05
2019-05-23T01:22:45.874Z,7.97
2019-05-23T01:25:23.587Z,11.93
2019-05-23T01:27:56.784Z,12.35
2019-05-23T01:30:36.320Z,14.93
2019-05-23T01:33:10.393Z,10.63
2019-05-23T01:35:45.028Z,12.13
2019-05-23T01:38:19.521Z,12.93
2019-05-23T01:40:54.232Z,11.70
2019-05-23T01:43:27.726Z,10.25
2019-05-23T01:46:02.754Z,12.47
2019-05-23T01:48:35.909Z,12.00
2019-05-23T01:51:11.375Z,11.03
2019-05-23T01:53:44.477Z,12.98
2019-05-23T01:56:18.545Z,14.13
2019-05-23T01:58:51.852Z,9.93
2019-05-23T02:01:25.338Z,11.45
2019-05-23T02:03:58.378Z,11.80
2019-05-23T02:06:32.884Z,19.57
2019-05-23T02:09:09.017Z,14.53
2019-05-23T02:11:43.218Z,13.95
2019-05-23T02:14:16.703Z,15.65
2019-05-23T02:16:50.706Z,16.37
2019-05-23T02:19:23.766Z,13.03
2019-05-23T02:21:57.668Z,12.23
2019-05-23T02:24:31.686Z,12.05
2019-05-23T02:27:05.511Z,10.82
2019-05-23T02:29:39.333Z,12.98
2019-05-23T02:32:12.332Z,13.58
2019-05-23T02:34:45.774Z,14.30
2019-05-23T02:37:34.498Z,12.50
2019-05-23T02:40:18.327Z,10.40
2019-05-23T02:42:56.084Z,17.55
2019-05-23T02:45:35.211Z,12.28
2019-05-23T02:48:12.427Z,11.00
2019-05-23T02:50:56.061Z,14.55
2019-05-23T02:53:33.771Z,14.83
2019-05-23T02:56:11.800Z,18.82
2019-05-23T02:59:13.703Z,13.93
2019-05-23T03:03:03.406Z,12.28
2019-05-23T03:05:38.927Z,19.62
2019-05-23T03:08:12.984Z,16.77
2019-05-23T03:10:58.629Z,13.30
2019-05-23T03:13:34.530Z,14.35
2019-05-23T03:16:07.962Z,18.27
2019-05-23T03:18:46.223Z,16.65
2019-05-23T03:21:21.363Z,14.43
2019-05-23T03:23:54.290Z,14.33
2019-05-23T03:27:06.012Z,13.00
2019-05-23T03:29:39.711Z,14.30
2019-05-23T03:32:49.921Z,17.20
2019-05-23T03:35:44.465Z,18.70
2019-05-23T03:38:17.277Z,14.40
2019-05-23T03:40:50.723Z,12.53
2019-05-23T03:43:23.637Z,16.02
2019-05-23T03:46:02.073Z,13.15
2019-05-23T03:48:36.346Z,17.37
2019-05-23T03:51:10.381Z,15.43
2019-05-23T03:53:46.180Z,10.80
2019-05-23T03:56:20.455Z,10.90
2019-05-23T03:58:56.209Z,19.07
2019-05-23T04:01:45.929Z,15.65
2019-05-23T04:04:07.403Z,15.72
2019-05-23T04:06:40.290Z,12.03
2019-05-23T04:09:13.574Z,10.38
2019-05-23T04:11:46.640Z,13.83
2019-05-23T04:14:20.251Z,18.00
2019-05-23T04:16:53.389Z,16.60
2019-05-23T04:19:26.362Z,13.40
2019-05-23T04:21:59.371Z,12.43
2019-05-23T04:24:32.240Z,13.53
2019-05-23T04:27:05.465Z,16.35
2019-05-23T04:29:38.332Z,10.40
2019-05-23T04:32:11.474Z,15.95
2019-05-23T04:34:44.747Z,14.63
2019-05-23T04:37:17.687Z,10.00
2019-05-23T04:39:50.968Z,11.68
2019-05-23T04:42:24.002Z,10.48
2019-05-23T04:44:56.819Z,13.25
2019-05-23T04:47:31.151Z,11.20
2019-05-23T04:50:04.281Z,16.93
2019-05-23T04:52:37.363Z,13.65
2019-05-23T04:55:13.051Z,14.87
2019-05-23T04:57:47.151Z,10.88
2019-05-23T05:00:21.490Z,11.30
2019-05-23T05:02:55.365Z,10.08
2019-05-23T05:05:28.303Z,18.60
2019-05-23T05:08:01.447Z,14.95
2019-05-23T05:10:34.782Z,13.45
2019-05-23T05:13:08.036Z,13.62
2019-05-23T05:15:40.825Z,13.48
2019-05-23T05:18:14.438Z,12.60
2019-05-23T05:20:47.681Z,8.60
2019-05-23T05:23:20.667Z,7.03
2019-05-23T05:25:53.637Z,12.15
2019-05-23T05:28:26.474Z,13.13
2019-05-23T05:30:59.384Z,9.78
2019-05-23T05:33:32.197Z,10.65
2019-05-23T05:36:05.183Z,15.38
2019-05-23T05:38:38.675Z,16.23
2019-05-23T05:41:11.642Z,13.03
2019-05-23T05:43:44.545Z,13.78
2019-05-23T05:46:19.043Z,20.35
2019-05-23T05:48:52.931Z,9.78
2019-05-23T05:51:25.760Z,16.23
2019-05-23T05:53:59.392Z,15.28
2019-05-23T05:56:32.227Z,13.35
2019-05-23T05:59:05.610Z,14.47
2019-05-23T06:01:38.824Z,16.95
2019-05-23T06:04:11.723Z,13.18
2019-05-23T06:06:50.735Z,10.75
2019-05-23T06:09:26.348Z,8.08
2019-05-23T06:11:59.270Z,9.45
2019-05-23T06:14:32.651Z,10.63
2019-05-23T06:17:08.108Z,11.93
2019-05-23T06:19:41.022Z,10.53
2019-05-23T06:22:14.647Z,10.63
2019-05-23T06:24:53.126Z,11.20
2019-05-23T06:27:24.605Z,6.42
2019-05-23T06:29:58.002Z,8.40
2019-05-23T06:32:35.462Z,11.90
2019-05-23T06:35:16.481Z,12.47
2019-05-23T06:37:55.912Z,9.38
2019-05-23T06:40:29.671Z,9.45
2019-05-23T06:43:03.236Z,7.65
2019-05-23T06:45:36.586Z,12.65
2019-05-23T06:48:11.985Z,8.70
2019-05-23T06:50:47.657Z,10.95
2019-05-23T06:53:25.801Z,7.00
2019-05-23T06:55:58.974Z,9.38
2019-05-23T06:58:38.308Z,8.85
2019-05-23T07:01:18.891Z,9.63
2019-05-23T07:03:57.588Z,11.40
2019-05-23T07:06:34.162Z,10.00
2019-05-23T07:09:14.818Z,13.00
2019-05-23T07:11:47.827Z,14.45
2019-05-23T07:14:23.736Z,9.18
2019-05-23T07:16:56.915Z,13.30
2019-05-23T07:19:30.042Z,9.55
2019-05-23T07:22:03.123Z,7.25
2019-05-23T07:24:37.093Z,10.38
2019-05-23T07:27:10.075Z,9.78
2019-05-23T07:29:43.204Z,9.80
2019-05-23T07:32:16.252Z,12.53
2019-05-23T07:34:49.229Z,12.47
2019-05-23T07:37:22.689Z,11.83
2019-05-23T07:39:55.696Z,14.18
2019-05-23T07:42:28.892Z,10.55
2019-05-23T07:45:03.508Z,8.65
2019-05-23T07:47:39.917Z,6.20
2019-05-23T07:50:13.593Z,9.18
2019-05-23T07:52:46.860Z,8.50
2019-05-23T07:55:27.008Z,4.83
2019-05-23T07:58:05.409Z,11.53
2019-05-23T08:00:41.948Z,10.05
2019-05-23T08:03:15.962Z,10.95
2019-05-23T08:05:48.902Z,12.73
2019-05-23T08:08:23.865Z,5.03
2019-05-23T08:11:00.889Z,5.30
2019-05-23T08:13:34.122Z,7.55
2019-05-23T08:16:07.338Z,7.17
2019-05-23T08:18:40.341Z,11.55
2019-05-23T08:21:14.926Z,14.55
2019-05-23T08:23:49.303Z,12.20
2019-05-23T08:26:22.834Z,4.83
2019-05-23T08:29:24.163Z,7.70
2019-05-23T08:31:32.761Z,6.50
2019-05-23T08:34:06.485Z,7.70
2019-05-23T08:36:39.833Z,5.50
2019-05-23T08:39:14.494Z,7.97
2019-05-23T08:41:47.716Z,11.45
2019-05-23T08:44:20.985Z,12.68
2019-05-23T08:46:54.461Z,10.50
2019-05-23T08:49:27.968Z,8.78
2019-05-23T08:52:00.830Z,9.00
2019-05-23T08:54:33.993Z,5.95
2019-05-23T08:57:08.571Z,6.22
2019-05-23T08:59:41.424Z,8.30
2019-05-23T09:02:17.163Z,4.70
2019-05-23T09:05:03.700Z,11.45
2019-05-23T09:07:25.071Z,11.12
2019-05-23T09:09:58.080Z,5.25
2019-05-23T09:12:31.125Z,8.45
2019-05-23T09:15:04.502Z,7.72
2019-05-23T09:17:52.246Z,8.33
2019-05-23T09:20:14.075Z,6.28
2019-05-23T09:22:48.658Z,4.20
2019-05-23T09:25:23.020Z,3.90
2019-05-23T09:27:56.379Z,5.10
2019-05-23T09:30:31.425Z,9.88
2019-05-23T09:33:06.092Z,2.85
2019-05-23T09:35:39.380Z,2.72
2019-05-23T09:38:12.335Z,7.03
2019-05-23T09:40:46.040Z,4.87
2019-05-23T09:43:22.692Z,4.80
2019-05-23T09:45:58.223Z,2.65
2019-05-23T09:48:31.686Z,4.45
2019-05-23T09:51:04.829Z,9.13
2019-05-23T09:53:38.208Z,6.35
2019-05-23T09:56:11.309Z,10.38
2019-05-23T09:58:44.304Z,3.65
2019-05-23T10:01:19.348Z,6.08
2019-05-23T10:03:52.381Z,2.77
2019-05-23T10:06:27.705Z,3.55
2019-05-23T10:09:01.110Z,3.92
2019-05-23T10:11:35.352Z,4.17
2019-05-23T10:14:12.642Z,4.87
2019-05-23T10:16:46.214Z,4.80
2019-05-23T10:19:22.029Z,4.97
2019-05-23T10:21:54.981Z,4.45
2019-05-23T10:24:28.025Z,14.98
2019-05-23T10:27:00.992Z,7.35
2019-05-23T10:29:34.035Z,3.37
2019-05-23T10:32:10.334Z,5.17
2019-05-23T10:34:43.346Z,11.25
2019-05-23T10:37:19.769Z,12.15
2019-05-23T10:39:56.329Z,5.20
2019-05-23T10:42:29.669Z,4.47
2019-05-23T10:45:04.590Z,4.00
2019-05-23T10:47:39.106Z,5.70
2019-05-23T10:50:15.524Z,1.90
2019-05-23T10:52:48.701Z,6.70
2019-05-23T10:55:21.659Z,3.62
2019-05-23T10:57:54.858Z,3.45
2019-05-23T11:00:29.026Z,6.55
2019-05-23T11:03:04.509Z,3.12
2019-05-23T11:05:38.265Z,9.50
2019-05-23T11:08:11.554Z,3.55
2019-05-23T11:10:46.373Z,3.90
2019-05-23T11:13:20.990Z,6.45
2019-05-23T11:15:54.578Z,2.35
2019-05-23T11:20:46.406Z,7.95
2019-05-23T11:23:25.002Z,3.12
2019-05-23T11:26:01.079Z,1.37
2019-05-23T11:28:34.636Z,5.67
2019-05-23T11:31:08.635Z,4.90
2019-05-23T11:33:41.853Z,3.47
2019-05-23T11:36:31.904Z,4.17
2019-05-23T11:38:50.773Z,3.10
2019-05-23T11:41:25.195Z,2.15
2019-05-23T11:43:58.086Z,7.58
2019-05-23T11:46:37.198Z,1.62
2019-05-23T11:49:10.146Z,5.12
2019-05-23T11:51:43.561Z,3.33
2019-05-23T11:54:16.862Z,5.92
2019-05-23T11:56:50.510Z,3.05
2019-05-23T11:59:24.599Z,2.08
2019-05-23T12:02:12.530Z,3.62
2019-05-23T12:04:45.566Z,4.40
2019-05-23T12:07:25.931Z,3.65
2019-05-23T12:10:00.234Z,4.08
2019-05-23T12:12:33.547Z,2.87
2019-05-23T12:15:09.884Z,6.22
2019-05-23T12:17:44.614Z,2.17
2019-05-23T12:20:18.643Z,2.90
2019-05-23T12:22:51.926Z,1.95
2019-05-23T12:25:26.675Z,2.42
2019-05-23T12:27:59.661Z,4.17
2019-05-23T12:30:32.731Z,3.47
2019-05-23T12:33:06.359Z,2.42
2019-05-23T12:35:41.227Z,2.60
2019-05-23T12:38:15.771Z,2.62
2019-05-23T12:40:48.721Z,2.08
2019-05-23T12:43:21.650Z,5.37
2019-05-23T12:45:54.716Z,1.95
2019-05-23T12:48:38.264Z,3.05
2019-05-23T12:51:11.373Z,1.32
2019-05-23T12:53:44.499Z,3.87
2019-05-23T12:56:18.095Z,2.25
2019-05-23T12:58:51.666Z,3.45
2019-05-23T13:01:25.479Z,3.08
2019-05-23T13:03:59.045Z,5.28
2019-05-23T13:06:33.154Z,5.40
2019-05-23T13:09:09.240Z,3.02
2019-05-23T13:11:42.375Z,2.60
2019-05-23T13:14:16.578Z,3.10
2019-05-23T13:16:49.978Z,2.37
2019-05-23T13:19:23.080Z,3.25
2019-05-23T13:21:57.376Z,2.65
2019-05-23T13:24:50.560Z,1.65
2019-05-23T13:27:09.072Z,3.20
2019-05-23T13:29:42.536Z,3.40
2019-05-23T13:32:16.034Z,2.33
2019-05-23T13:34:49.013Z,1.47
2019-05-23T13:37:23.602Z,1.25
2019-05-23T13:39:56.630Z,6.03
2019-05-23T13:42:29.685Z,4.08
2019-05-23T13:45:02.637Z,4.78
2019-05-23T13:47:35.776Z,1.55
2019-05-23T13:50:09.317Z,4.12
2019-05-23T13:52:42.753Z,6.70
2019-05-23T13:55:16.917Z,3.25
2019-05-23T13:57:50.289Z,6.12
2019-05-23T14:00:25.069Z,3.60
2019-05-23T14:02:58.158Z,2.35
2019-05-23T14:05:31.519Z,5.00
2019-05-23T14:08:12.514Z,3.17
2019-05-23T14:10:40.426Z,5.03
2019-05-23T14:13:13.359Z,5.45
2019-05-23T14:15:49.027Z,9.00
2019-05-23T14:18:22.142Z,1.82
2019-05-23T14:20:55.260Z,1.50
2019-05-23T14:23:33.278Z,2.83
2019-05-23T14:26:06.483Z,3.45
2019-05-23T14:28:39.654Z,4.17
2019-05-23T14:31:35.655Z,2.22
2019-05-23T14:34:17.083Z,2.37
2019-05-23T14:36:59.265Z,3.35
2019-05-23T14:39:44.726Z,2.10
2019-05-23T14:42:45.978Z,4.40
2019-05-23T14:45:35.703Z,1.82
2019-05-23T14:48:26.452Z,13.88
2019-05-23T14:51:15.674Z,2.98
2019-05-23T14:53:52.502Z,2.67
2019-05-23T14:56:27.094Z,3.05
2019-05-23T14:59:00.278Z,4.83
2019-05-23T15:01:34.671Z,2.55
2019-05-23T15:04:08.199Z,5.05
2019-05-23T15:06:41.098Z,2.60
2019-05-23T15:09:14.054Z,4.00
2019-05-23T15:11:47.586Z,2.10
2019-05-23T15:14:20.703Z,2.92
2019-05-23T15:16:53.566Z,2.52
2019-05-23T15:19:41.859Z,2.08
2019-05-23T15:22:01.264Z,3.98
2019-05-23T15:24:34.520Z,2.67
2019-05-23T15:27:07.520Z,1.15
2019-05-23T15:29:40.560Z,2.95
2019-05-23T15:32:13.596Z,3.35
2019-05-23T15:34:46.463Z,2.37
2019-05-23T15:37:19.627Z,2.20
2019-05-23T15:39:52.683Z,1.27
2019-05-23T15:42:25.699Z,6.40
2019-05-23T15:44:58.748Z,3.27
2019-05-23T15:47:33.359Z,4.20
2019-05-23T15:50:11.917Z,1.75
2019-05-23T15:53:02.861Z,3.77
2019-05-23T15:55:57.511Z,1.55
2019-05-23T15:58:39.220Z,2.65
2019-05-23T16:01:19.347Z,2.25
2019-05-23T16:04:05.190Z,2.02
2019-05-23T16:06:40.366Z,5.03
2019-05-23T16:09:28.606Z,6.25
2019-05-23T16:11:48.496Z,9.58
2019-05-23T16:14:22.067Z,6.80
2019-05-23T16:16:56.838Z,6.33
2019-05-23T16:19:30.384Z,6.90
2019-05-23T16:22:04.386Z,4.62
2019-05-23T16:24:37.379Z,3.22
2019-05-23T16:27:12.158Z,2.77
2019-05-23T16:29:44.964Z,5.00
2019-05-23T16:32:17.785Z,5.95
2019-05-23T16:34:50.809Z,3.62
2019-05-23T16:37:23.951Z,2.83
2019-05-23T16:39:56.916Z,2.20
2019-05-23T16:42:30.315Z,4.55
2019-05-23T16:45:03.510Z,4.85
2019-05-23T16:47:36.875Z,28.47
2019-05-23T16:50:10.758Z,6.58
2019-05-23T16:52:49.552Z,28.30
2019-05-23T16:55:33.803Z,33.83
2019-05-23T16:58:16.705Z,8.50
2019-05-23T17:01:01.750Z,12.40
2019-05-23T17:03:43.018Z,6.78
2019-05-23T17:06:43.640Z,11.10
2019-05-23T17:09:35.313Z,35.92
2019-05-23T17:12:25.761Z,29.95
2019-05-23T17:15:10.898Z,28.38
2019-05-23T17:18:14.982Z,36.08
2019-05-23T17:21:06.367Z,43.35
2019-05-23T17:23:58.244Z,6.83
2019-05-23T17:27:08.453Z,12.47
2019-05-23T17:29:48.182Z,6.28
2019-05-23T17:32:25.632Z,3.98
2019-05-23T17:34:59.002Z,2.60
2019-05-23T17:37:32.494Z,3.00
2019-05-23T17:40:06.143Z,1.07
2019-05-23T17:42:39.246Z,9.38
2019-05-23T17:45:14.215Z,4.45
2019-05-23T17:47:47.589Z,3.00
2019-05-23T17:50:20.617Z,2.80
2019-05-23T17:52:53.637Z,2.58
2019-05-23T17:55:28.382Z,3.15
2019-05-23T17:58:01.400Z,11.10
2019-05-23T18:00:41.233Z,2.72
2019-05-23T18:03:15.404Z,4.53
2019-05-23T18:05:48.946Z,4.40
2019-05-23T18:08:23.704Z,4.33
2019-05-23T18:10:57.744Z,3.27
2019-05-23T18:13:32.601Z,3.27
2019-05-23T18:16:06.732Z,5.03
2019-05-23T18:18:40.198Z,4.97
2019-05-23T18:21:13.863Z,5.72
2019-05-23T18:23:48.859Z,4.80
2019-05-23T18:26:22.153Z,8.28
2019-05-23T18:28:56.328Z,12.35
2019-05-23T18:31:32.257Z,12.05
2019-05-23T18:34:07.924Z,17.42
2019-05-23T18:36:41.787Z,11.25
2019-05-23T18:39:17.071Z,8.85
2019-05-23T18:41:50.554Z,7.03
2019-05-23T18:44:24.526Z,8.60
2019-05-23T18:47:00.182Z,5.75
2019-05-23T18:49:34.925Z,6.45
2019-05-23T18:52:09.418Z,4.70
2019-05-23T18:54:45.070Z,12.40
2019-05-23T18:57:19.339Z,12.50
2019-05-23T18:59:53.255Z,10.98
2019-05-23T19:02:27.118Z,10.60
2019-05-23T19:05:02.353Z,6.30
2019-05-23T19:07:35.960Z,5.42
2019-05-23T19:10:11.636Z,10.88
2019-05-23T19:12:45.476Z,8.95
2019-05-23T19:15:19.197Z,10.45
2019-05-23T19:17:53.234Z,8.43
2019-05-23T19:20:26.617Z,10.48
2019-05-23T19:23:01.051Z,9.88
2019-05-23T19:25:37.799Z,10.98
2019-05-23T19:28:12.917Z,8.15
2019-05-23T19:30:46.952Z,9.18
2019-05-23T19:33:20.644Z,6.47
2019-05-23T19:35:54.237Z,8.68
2019-05-23T19:38:28.443Z,15.90
2019-05-23T19:41:02.906Z,17.40
2019-05-23T19:43:48.111Z,16.42
2019-05-23T19:46:21.592Z,15.03
2019-05-23T19:48:59.133Z,12.55
2019-05-23T19:51:37.404Z,13.70
2019-05-23T19:54:41.399Z,10.13
2019-05-23T19:57:30.964Z,13.55
2019-05-23T20:05:06.121Z,18.45
2019-05-23T20:07:41.635Z,14.93
2019-05-23T20:10:16.065Z,11.93
2019-05-23T20:12:49.587Z,8.65
2019-05-23T20:15:23.634Z,6.80
2019-05-23T20:17:57.267Z,5.03
2019-05-23T20:20:34.807Z,6.85
2019-05-23T20:23:09.474Z,6.03
2019-05-23T20:25:42.976Z,7.72
2019-05-23T20:28:16.342Z,5.70
2019-05-23T20:30:58.873Z,13.90
2019-05-23T20:33:32.532Z,9.75
2019-05-23T20:36:12.270Z,7.33
2019-05-23T20:38:47.006Z,7.55
2019-05-23T20:41:22.305Z,8.60
2019-05-23T20:43:55.603Z,10.63
2019-05-23T20:46:29.291Z,12.78
2019-05-23T20:49:02.626Z,10.23
2019-05-23T20:51:37.879Z,7.80
2019-05-23T20:54:14.485Z,11.30
2019-05-23T20:56:48.057Z,12.13
2019-05-23T20:59:21.465Z,7.95
2019-05-23T21:01:54.706Z,10.43
2019-05-23T21:04:27.846Z,12.40
2019-05-23T21:07:01.087Z,8.68
2019-05-23T21:09:34.862Z,10.55
2019-05-23T21:12:08.970Z,15.53
2019-05-23T21:14:42.756Z,14.28
2019-05-23T21:17:16.323Z,8.30
2019-05-23T21:19:49.436Z,8.80
2019-05-23T21:22:22.768Z,10.48
2019-05-23T21:24:56.644Z,8.58
2019-05-23T21:27:30.048Z,10.85
2019-05-23T21:30:03.156Z,11.43
2019-05-23T21:32:37.177Z,9.23
2019-05-23T21:35:10.402Z,8.33
2019-05-23T21:37:43.527Z,10.50
2019-05-23T21:40:32.641Z,12.20
2019-05-23T21:43:05.999Z,6.37
2019-05-23T21:45:39.319Z,6.12
2019-05-23T21:48:13.489Z,6.80
2019-05-23T21:50:46.555Z,7.12
2019-05-23T21:53:20.006Z,9.90
2019-05-23T21:55:53.449Z,7.42
2019-05-23T21:58:26.695Z,12.00
2019-05-23T22:01:57.907Z,11.35
2019-05-23T22:04:38.279Z,11.43
2019-05-23T22:07:12.136Z,11.53
2019-05-23T22:09:45.335Z,16.05
2019-05-23T22:12:18.503Z,16.32
2019-05-23T22:14:51.936Z,11.08
2019-05-23T22:17:26.639Z,13.03
2019-05-23T22:19:59.719Z,12.05
2019-05-23T22:22:33.181Z,16.12
2019-05-23T22:25:06.526Z,16.55
2019-05-23T22:27:39.666Z,19.80
2019-05-23T22:30:12.859Z,14.15
2019-05-23T22:32:46.527Z,14.23
2019-05-23T22:35:20.604Z,18.00
2019-05-23T22:37:53.903Z,17.45
2019-05-23T22:40:26.820Z,17.12
2019-05-23T22:43:00.412Z,12.73
2019-05-23T22:45:34.197Z,11.00
2019-05-23T22:48:07.347Z,12.47
2019-05-23T22:50:40.254Z,9.13
2019-05-23T22:53:13.213Z,12.53
2019-05-23T22:55:46.344Z,10.68
2019-05-23T22:58:19.375Z,11.63
2019-05-23T23:00:52.384Z,6.87
2019-05-23T23:03:25.564Z,8.53
2019-05-23T23:05:58.608Z,8.65
2019-05-23T23:08:33.110Z,6.58
2019-05-23T23:11:06.141Z,11.63
2019-05-23T23:13:39.506Z,10.08
2019-05-23T23:16:13.148Z,9.73
2019-05-23T23:18:46.418Z,10.80
2019-05-23T23:21:19.680Z,11.70
2019-05-23T23:23:52.849Z,8.53
2019-05-23T23:26:25.800Z,5.90
2019-05-23T23:28:59.273Z,9.30
2019-05-23T23:31:32.795Z,8.68
2019-05-23T23:34:05.824Z,8.65
2019-05-23T23:36:38.774Z,6.75
2019-05-23T23:39:11.929Z,11.12
2019-05-23T23:41:44.887Z,7.75
2019-05-23T23:44:18.017Z,5.70
2019-05-23T23:47:08.320Z,9.73
2019-05-23T23:49:58.699Z,6.62
2019-05-23T23:52:49.377Z,9.35
2019-05-23T23:55:40.467Z,9.98
2019-05-23T23:58:12.517Z,10.15
